Time;durP1;ratioP1;P1;durP2;ratioP2;P2;SDS_P1;SDS_P2;PMS_P1;PMS_P2;Temp;Humidity;BMP_temperature;BMP_pressure;BME280_temperature;BME280_humidity;BME280_pressure;Samples;Min_cycle;Max_cycle;Signal;HPM_P1;HPM_P2
2021/12/15 00:00:22;;;;;;;146.50;130.18;;;10.80;99.90;;;;;;5027027;28;20120;-76
2021/12/15 00:02:52;;;;;;;144.50;129.00;;;10.80;99.90;;;;;;5052408;28;20149;-76
2021/12/15 00:05:23;;;;;;;150.25;133.27;;;10.80;99.90;;;;;;5037758;28;20522;-75
2021/12/15 00:07:52;;;;;;;146.57;131.02;;;10.80;99.90;;;;;;5055517;28;20053;-76
2021/12/15 00:10:20;;;;;;;148.52;133.02;;;10.80;99.90;;;;;;5041709;28;20049;-75
2021/12/15 00:12:49;;;;;;;151.77;135.52;;;10.80;99.90;;;;;;5056124;28;20053;-76
2021/12/15 00:15:18;;;;;;;148.93;132.60;;;10.80;99.90;;;;;;5046110;28;20133;-76
2021/12/15 00:17:45;;;;;;;149.90;134.13;;;10.80;99.90;;;;;;5050790;28;20052;-76
2021/12/15 00:20:15;;;;;;;146.60;130.98;;;10.80;99.90;;;;;;5050936;28;20049;-76
2021/12/15 00:22:43;;;;;;;148.02;130.63;;;10.80;99.90;;;;;;5021046;28;20054;-76
2021/12/15 00:25:12;;;;;;;151.30;135.10;;;10.80;99.90;;;;;;5045292;28;20107;-76
2021/12/15 00:27:39;;;;;;;149.05;132.52;;;10.80;99.90;;;;;;5069647;28;20049;-76
2021/12/15 00:30:10;;;;;;;150.13;133.68;;;10.80;99.90;;;;;;5036349;28;20077;-75
2021/12/15 00:32:38;;;;;;;149.30;133.45;;;10.80;99.90;;;;;;5024468;28;20049;-75
2021/12/15 00:35:09;;;;;;;151.18;134.70;;;10.80;99.90;;;;;;5035319;28;20801;-76
2021/12/15 00:37:37;;;;;;;149.48;133.75;;;10.80;99.90;;;;;;5026049;28;20103;-76
2021/12/15 00:40:06;;;;;;;154.50;137.60;;;10.80;99.90;;;;;;5055829;28;20212;-76
2021/12/15 00:42:34;;;;;;;153.20;136.98;;;10.80;99.90;;;;;;5064308;28;20049;-75
2021/12/15 00:45:01;;;;;;;153.80;137.32;;;10.80;99.90;;;;;;5024099;28;20507;-76
2021/12/15 00:47:29;;;;;;;148.98;132.90;;;10.80;99.90;;;;;;5042337;28;20087;-76
2021/12/15 00:49:56;;;;;;;147.50;131.32;;;10.80;99.90;;;;;;5046190;28;20531;-75
2021/12/15 00:52:24;;;;;;;143.10;127.90;;;10.80;99.90;;;;;;5035558;28;20053;-75
2021/12/15 00:54:51;;;;;;;145.07;129.65;;;10.80;99.90;;;;;;5064261;28;20053;-76
2021/12/15 00:57:18;;;;;;;145.68;130.05;;;10.80;99.90;;;;;;5028398;28;20815;-76
2021/12/15 00:59:45;;;;;;;143.80;128.57;;;10.90;99.90;;;;;;5025941;28;20045;-76
2021/12/15 01:02:12;;;;;;;142.80;127.68;;;10.80;99.90;;;;;;5053435;28;20053;-76
2021/12/15 01:04:41;;;;;;;143.50;128.38;;;10.80;99.90;;;;;;5047742;28;20136;-75
2021/12/15 01:07:10;;;;;;;143.40;128.45;;;10.90;99.90;;;;;;5056256;28;20236;-76
2021/12/15 01:09:43;;;;;;;146.18;130.40;;;10.90;99.90;;;;;;5031638;28;20843;-76
2021/12/15 01:12:20;;;;;;;145.43;130.00;;;10.80;99.90;;;;;;5028456;28;20144;-75
2021/12/15 01:20:27;;;;;;;148.38;132.88;;;10.90;99.90;;;;;;5043206;28;20544;-76
2021/12/15 01:22:57;;;;;;;145.27;129.75;;;10.90;99.90;;;;;;5043426;28;20056;-75
2021/12/15 01:25:29;;;;;;;145.82;130.07;;;10.80;99.90;;;;;;5049556;28;20172;-76
2021/12/15 01:27:56;;;;;;;147.32;131.63;;;10.90;99.90;;;;;;5037152;28;20457;-76
2021/12/15 01:30:27;;;;;;;148.98;133.10;;;10.90;99.90;;;;;;5023494;28;20498;-76
2021/12/15 01:32:55;;;;;;;146.18;130.73;;;10.90;99.90;;;;;;5045284;28;20161;-75
2021/12/15 01:35:24;;;;;;;146.82;131.30;;;10.90;99.90;;;;;;5034095;28;20121;-76
2021/12/15 01:37:52;;;;;;;148.85;132.63;;;10.90;99.90;;;;;;5029463;28;20054;-75
2021/12/15 01:40:31;;;;;;;151.73;135.38;;;10.90;99.90;;;;;;5033431;28;20112;-75
2021/12/15 01:42:58;;;;;;;146.98;131.48;;;10.90;99.90;;;;;;5047461;28;20540;-76
2021/12/15 01:48:13;;;;;;;;;;;10.90;99.90;;;;;;5055006;28;20052;-76
2021/12/15 01:50:43;;;;;;;144.38;128.48;;;10.90;99.90;;;;;;5030767;28;20430;-76
2021/12/15 01:53:11;;;;;;;144.38;128.57;;;10.90;99.90;;;;;;5050505;28;20045;-76
2021/12/15 01:55:38;;;;;;;148.98;132.65;;;10.90;99.90;;;;;;5011854;28;20497;-76
2021/12/15 01:58:05;;;;;;;152.10;135.57;;;10.90;99.90;;;;;;5054498;28;20136;-76
2021/12/15 02:00:36;;;;;;;146.18;130.38;;;10.90;99.90;;;;;;5029588;28;20045;-76
2021/12/15 02:03:04;;;;;;;146.63;130.93;;;10.90;99.90;;;;;;5052676;28;20128;-76
2021/12/15 02:05:33;;;;;;;148.00;131.95;;;10.80;99.90;;;;;;5028095;28;20045;-76
2021/12/15 02:08:03;;;;;;;148.88;132.02;;;10.90;99.90;;;;;;5025344;28;20141;-76
2021/12/15 02:10:33;;;;;;;151.18;133.57;;;10.90;99.90;;;;;;5034475;28;20523;-76
2021/12/15 02:13:03;;;;;;;150.30;134.05;;;10.90;99.90;;;;;;5022119;28;20045;-76
2021/12/15 02:15:35;;;;;;;151.88;135.23;;;10.90;99.90;;;;;;5019169;28;20145;-76
2021/12/15 02:18:08;;;;;;;153.52;136.60;;;11.00;99.90;;;;;;5027374;28;20506;-75
2021/12/15 02:20:39;;;;;;;149.77;133.40;;;11.00;99.90;;;;;;5045630;28;20049;-76
2021/12/15 02:23:11;;;;;;;152.23;132.40;;;10.90;99.90;;;;;;5049967;28;21057;-76
2021/12/15 02:26:07;;;;;;;145.43;129.48;;;10.90;99.90;;;;;;5071524;28;20137;-76
2021/12/15 02:28:34;;;;;;;141.85;126.45;;;10.90;99.90;;;;;;5027627;28;20049;-76
2021/12/15 02:31:10;;;;;;;146.52;130.50;;;10.90;99.90;;;;;;5020832;28;20065;-76
2021/12/15 02:34:00;;;;;;;146.50;129.75;;;10.90;99.90;;;;;;5027375;28;20054;-76
2021/12/15 02:39:14;;;;;;;;;;;10.90;99.90;;;;;;5018624;28;20053;-76
2021/12/15 02:41:43;;;;;;;148.32;132.18;;;10.90;99.90;;;;;;5016950;28;20410;-75
2021/12/15 02:44:13;;;;;;;151.70;133.57;;;10.90;99.90;;;;;;5030903;28;20099;-76
2021/12/15 02:46:41;;;;;;;153.38;134.00;;;10.90;99.90;;;;;;5048961;28;20055;-76
2021/12/15 02:49:09;;;;;;;149.20;130.55;;;10.90;99.90;;;;;;5063354;28;20087;-76
2021/12/15 02:51:40;;;;;;;144.15;127.47;;;10.90;99.90;;;;;;5046587;28;20132;-76
2021/12/15 02:54:08;;;;;;;159.23;139.32;;;10.90;99.90;;;;;;5040157;28;20847;-76
2021/12/15 02:56:36;;;;;;;153.73;132.60;;;10.90;99.90;;;;;;5048657;28;20052;-76
2021/12/15 02:59:05;;;;;;;153.68;131.68;;;10.90;99.90;;;;;;5047804;28;20132;-76
2021/12/15 03:01:41;;;;;;;149.40;128.50;;;10.90;99.90;;;;;;5055228;28;20128;-75
2021/12/15 03:04:17;;;;;;;153.98;129.90;;;10.90;99.90;;;;;;5052962;28;20081;-75
2021/12/15 03:06:53;;;;;;;155.80;134.02;;;10.90;99.90;;;;;;5030185;28;20057;-76
2021/12/15 03:17:38;;;;;;;164.70;139.35;;;11.00;99.90;;;;;;5048397;28;20045;-76
2021/12/15 03:20:07;;;;;;;162.82;132.82;;;10.90;99.90;;;;;;5051554;28;20089;-76
2021/12/15 03:22:36;;;;;;;161.23;133.38;;;10.90;99.90;;;;;;5062443;28;20053;-75
2021/12/15 03:25:06;;;;;;;162.57;134.85;;;10.90;99.90;;;;;;5044796;28;20089;-75
2021/12/15 03:35:59;;;;;;;159.70;134.60;;;10.90;99.90;;;;;;5043629;28;20056;-76
2021/12/15 03:38:28;;;;;;;166.60;138.30;;;10.90;99.90;;;;;;5043882;28;20064;-76
2021/12/15 03:40:55;;;;;;;156.27;136.05;;;10.90;99.90;;;;;;5051867;28;20057;-76
2021/12/15 03:43:23;;;;;;;157.75;135.48;;;10.90;99.90;;;;;;5068476;28;20043;-76
2021/12/15 03:45:53;;;;;;;166.65;139.73;;;10.90;99.90;;;;;;5037299;28;20129;-75
2021/12/15 03:48:25;;;;;;;158.20;136.02;;;10.80;99.90;;;;;;5064111;28;20056;-75
2021/12/15 03:50:56;;;;;;;152.82;134.07;;;10.90;99.90;;;;;;5044354;28;20053;-76
2021/12/15 03:53:24;;;;;;;163.68;138.18;;;10.80;99.90;;;;;;5062876;28;20061;-76
2021/12/15 03:55:54;;;;;;;160.07;137.15;;;10.80;99.90;;;;;;5055489;28;20054;-76
2021/12/15 03:58:23;;;;;;;159.90;136.00;;;10.80;99.90;;;;;;5059542;28;20057;-75
2021/12/15 04:00:53;;;;;;;163.88;138.13;;;10.80;99.90;;;;;;5050677;28;20485;-76
2021/12/15 04:03:23;;;;;;;162.57;136.75;;;10.80;99.90;;;;;;5061102;28;20597;-76
2021/12/15 04:05:50;;;;;;;159.93;139.82;;;10.80;99.90;;;;;;5062650;28;20499;-76
2021/12/15 04:08:18;;;;;;;161.68;138.88;;;10.80;99.90;;;;;;5023400;28;20076;-75
2021/12/15 04:10:45;;;;;;;160.05;137.45;;;10.80;99.90;;;;;;5055718;28;20077;-76
2021/12/15 04:13:13;;;;;;;164.18;142.48;;;10.80;99.90;;;;;;5047799;28;20148;-76
2021/12/15 04:15:47;;;;;;;167.82;142.82;;;10.80;99.90;;;;;;5050422;28;20056;-76
2021/12/15 04:18:15;;;;;;;156.60;136.35;;;10.80;99.90;;;;;;5034678;28;20583;-76
2021/12/15 04:20:42;;;;;;;158.32;138.68;;;10.80;99.90;;;;;;5043941;28;20053;-76
2021/12/15 04:23:12;;;;;;;162.38;142.30;;;10.80;99.90;;;;;;5061941;28;20137;-75
2021/12/15 04:25:41;;;;;;;155.48;137.98;;;10.80;99.90;;;;;;5036481;28;20153;-76
2021/12/15 04:28:11;;;;;;;160.32;137.43;;;10.80;99.90;;;;;;5053980;28;20057;-76
2021/12/15 04:30:44;;;;;;;165.77;140.18;;;10.80;99.90;;;;;;5026031;28;20175;-76
2021/12/15 04:33:17;;;;;;;163.23;142.43;;;10.80;99.90;;;;;;5038377;28;20127;-76
2021/12/15 04:35:45;;;;;;;163.38;139.23;;;10.80;99.90;;;;;;5065298;28;20057;-75
2021/12/15 04:38:14;;;;;;;166.55;142.13;;;10.80;99.90;;;;;;5049428;28;20514;-76
2021/12/15 04:40:43;;;;;;;158.77;139.32;;;10.80;99.90;;;;;;5070865;28;20103;-76
2021/12/15 04:43:12;;;;;;;159.85;140.95;;;10.80;99.90;;;;;;5050282;28;20606;-76
2021/12/15 04:45:41;;;;;;;167.63;144.95;;;10.70;99.90;;;;;;5050142;28;20121;-76
2021/12/15 04:48:09;;;;;;;170.38;146.10;;;10.70;99.90;;;;;;5037551;28;20058;-76
2021/12/15 04:50:37;;;;;;;162.00;139.40;;;10.70;99.90;;;;;;5020473;28;20073;-76
2021/12/15 04:53:06;;;;;;;158.30;139.88;;;10.70;99.90;;;;;;5037428;28;20060;-76
2021/12/15 04:55:35;;;;;;;166.95;140.82;;;10.80;99.90;;;;;;5043013;28;20044;-75
2021/12/15 04:58:04;;;;;;;160.68;139.82;;;10.80;99.90;;;;;;5056279;28;20057;-76
2021/12/15 05:00:35;;;;;;;160.95;141.82;;;10.70;99.90;;;;;;5044767;28;20057;-76
2021/12/15 05:03:04;;;;;;;164.52;141.55;;;10.70;99.90;;;;;;5060695;28;20128;-76
2021/12/15 05:05:33;;;;;;;165.98;142.50;;;10.70;99.90;;;;;;5054777;28;20049;-75
2021/12/15 05:08:00;;;;;;;171.27;147.35;;;10.70;99.90;;;;;;5037551;28;20088;-76
2021/12/15 05:10:27;;;;;;;165.38;143.20;;;10.70;99.90;;;;;;5060703;28;20062;-75
2021/12/15 05:12:54;;;;;;;171.90;153.43;;;10.70;99.90;;;;;;5025376;28;20598;-76
2021/12/15 05:15:21;;;;;;;162.20;144.23;;;10.80;99.90;;;;;;5032389;28;20045;-76
2021/12/15 05:17:49;;;;;;;171.15;148.77;;;10.80;99.90;;;;;;5036165;28;20124;-76
2021/12/15 05:20:17;;;;;;;164.10;142.45;;;10.80;99.90;;;;;;5036304;28;20088;-76
2021/12/15 05:22:44;;;;;;;168.73;146.00;;;10.80;99.90;;;;;;5032262;28;20107;-75
2021/12/15 05:25:12;;;;;;;162.50;141.68;;;10.70;99.90;;;;;;5060046;28;20127;-76
2021/12/15 05:27:40;;;;;;;161.45;142.45;;;10.70;99.90;;;;;;5045060;28;20053;-75
2021/12/15 05:30:10;;;;;;;171.50;152.57;;;10.70;99.90;;;;;;5038445;28;20172;-76
2021/12/15 05:32:37;;;;;;;170.38;151.68;;;10.70;99.90;;;;;;5053036;28;20507;-76
2021/12/15 05:35:05;;;;;;;168.75;143.57;;;10.70;99.90;;;;;;5049610;28;20050;-76
2021/12/15 05:37:34;;;;;;;167.70;142.88;;;10.70;99.90;;;;;;5045953;28;20049;-76
2021/12/15 05:40:01;;;;;;;168.57;147.30;;;10.70;99.90;;;;;;5042405;28;20045;-76
2021/12/15 05:42:29;;;;;;;167.20;144.13;;;10.70;99.90;;;;;;5045995;28;20073;-76
2021/12/15 05:44:56;;;;;;;160.07;138.88;;;10.70;99.90;;;;;;5049732;28;20125;-76
2021/12/15 05:47:25;;;;;;;166.50;143.05;;;10.70;99.90;;;;;;5063028;28;20095;-76
2021/12/15 05:49:55;;;;;;;170.68;152.02;;;10.70;99.90;;;;;;5069505;28;20053;-75
2021/12/15 05:52:25;;;;;;;168.90;144.48;;;10.80;99.90;;;;;;5056241;28;20562;-76
2021/12/15 05:54:54;;;;;;;170.95;145.63;;;10.80;99.90;;;;;;5036011;28;20060;-76
2021/12/15 05:57:21;;;;;;;161.05;141.10;;;10.70;99.90;;;;;;5069939;28;20131;-76
2021/12/15 05:59:48;;;;;;;168.98;148.82;;;10.70;99.90;;;;;;5048490;28;20576;-76
2021/12/15 06:02:18;;;;;;;170.57;150.50;;;10.70;99.90;;;;;;5024765;28;20129;-76
2021/12/15 06:04:45;;;;;;;161.02;139.07;;;10.70;99.90;;;;;;5044699;28;20155;-75
2021/12/15 06:07:12;;;;;;;167.68;146.68;;;10.70;99.90;;;;;;5045114;28;20133;-76
2021/12/15 06:09:40;;;;;;;171.05;152.20;;;10.70;99.90;;;;;;5044722;28;20045;-75
2021/12/15 06:12:10;;;;;;;166.40;148.13;;;10.70;99.90;;;;;;5052640;28;20129;-76
2021/12/15 06:14:37;;;;;;;163.55;145.55;;;10.70;99.90;;;;;;5063270;28;20506;-76
2021/12/15 06:17:09;;;;;;;165.40;146.10;;;10.70;99.90;;;;;;5050098;28;20127;-76
2021/12/15 06:19:36;;;;;;;170.45;145.50;;;10.70;99.90;;;;;;5066047;28;20503;-76
2021/12/15 06:22:05;;;;;;;160.60;142.95;;;10.70;99.90;;;;;;5068715;28;20041;-76
2021/12/15 06:24:33;;;;;;;164.80;145.45;;;10.70;99.90;;;;;;5031097;28;20046;-76
2021/12/15 06:27:05;;;;;;;167.40;148.88;;;10.70;99.90;;;;;;5061158;28;20435;-76
2021/12/15 06:29:36;;;;;;;164.20;143.55;;;10.70;99.90;;;;;;5062586;28;20076;-75
2021/12/15 06:32:03;;;;;;;167.98;149.70;;;10.70;99.90;;;;;;5020930;28;20583;-76
2021/12/15 06:34:30;;;;;;;166.32;148.63;;;10.70;99.90;;;;;;5035054;28;20050;-75
2021/12/15 06:36:58;;;;;;;162.23;144.50;;;10.70;99.90;;;;;;5058091;28;20053;-77
2021/12/15 06:39:25;;;;;;;165.25;147.15;;;10.70;99.90;;;;;;5053427;28;20054;-76
2021/12/15 06:41:52;;;;;;;163.30;144.38;;;10.70;99.90;;;;;;5060731;28;20136;-76
2021/12/15 06:44:19;;;;;;;166.90;148.88;;;10.70;99.90;;;;;;5056145;28;20075;-76
2021/12/15 06:47:16;;;;;;;166.20;146.40;;;10.70;99.90;;;;;;5068425;28;20086;-76
2021/12/15 06:58:12;;;;;;;162.25;140.57;;;10.70;99.90;;;;;;5038444;28;20050;-75
2021/12/15 07:00:42;;;;;;;164.38;146.23;;;10.70;99.90;;;;;;5056623;28;20058;-76
2021/12/15 07:03:13;;;;;;;156.93;139.93;;;10.70;99.90;;;;;;5055586;28;20099;-76
2021/12/15 07:05:40;;;;;;;162.75;141.40;;;10.70;99.90;;;;;;5058813;28;20054;-76
2021/12/15 07:08:09;;;;;;;164.70;145.45;;;10.70;99.90;;;;;;5039173;28;20053;-75
2021/12/15 07:10:40;;;;;;;158.90;141.88;;;10.70;99.90;;;;;;5060766;28;20057;-76
2021/12/15 07:13:08;;;;;;;159.32;141.77;;;10.70;99.90;;;;;;5030279;28;20115;-75
2021/12/15 07:15:37;;;;;;;161.00;141.32;;;10.70;99.90;;;;;;5055085;28;20060;-75
2021/12/15 07:18:08;;;;;;;159.90;140.75;;;10.70;99.90;;;;;;5038155;28;20092;-76
2021/12/15 07:20:41;;;;;;;161.32;140.30;;;10.70;99.90;;;;;;5047864;28;20050;-76
2021/12/15 07:23:11;;;;;;;158.93;139.00;;;10.80;99.90;;;;;;5050781;28;20048;-76
2021/12/15 07:25:40;;;;;;;164.43;140.77;;;10.80;99.90;;;;;;5071163;28;20534;-76
2021/12/15 07:28:08;;;;;;;154.82;137.90;;;10.80;99.90;;;;;;5044813;28;20513;-76
2021/12/15 07:30:38;;;;;;;158.07;135.75;;;10.80;99.90;;;;;;5039903;28;20843;-77
2021/12/15 07:33:06;;;;;;;156.10;139.07;;;10.80;99.90;;;;;;5053379;28;20558;-76
2021/12/15 07:35:34;;;;;;;150.43;133.43;;;10.80;99.90;;;;;;5047341;28;20153;-76
2021/12/15 07:38:03;;;;;;;151.38;135.25;;;10.70;99.90;;;;;;5045838;28;20522;-77
2021/12/15 07:40:30;;;;;;;150.00;133.95;;;10.80;99.90;;;;;;5026893;28;20057;-76
2021/12/15 07:43:07;;;;;;;150.55;134.60;;;10.80;99.90;;;;;;5030901;28;20038;-76
2021/12/15 07:45:38;;;;;;;;;;;10.80;99.90;;;;;;5053883;28;20468;-76
2021/12/15 07:48:10;;;;;;;147.57;131.15;;;10.80;99.90;;;;;;5062733;28;20016;-76
2021/12/15 07:50:38;;;;;;;149.02;132.60;;;10.70;99.90;;;;;;5040360;28;20112;-77
2021/12/15 07:53:07;;;;;;;151.23;135.43;;;10.70;99.90;;;;;;5020841;28;20046;-77
2021/12/15 07:55:35;;;;;;;158.52;141.60;;;10.70;99.90;;;;;;5035841;28;20052;-76
2021/12/15 07:58:03;;;;;;;153.05;136.50;;;10.70;99.90;;;;;;5045957;28;20054;-77
2021/12/15 08:00:31;;;;;;;154.25;137.50;;;10.70;99.90;;;;;;5029507;28;20554;-78
2021/12/15 08:03:00;;;;;;;156.27;139.80;;;10.70;99.90;;;;;;5036819;28;20085;-79
2021/12/15 08:05:29;;;;;;;158.38;141.88;;;10.80;99.90;;;;;;5030653;28;20054;-79
2021/12/15 08:07:56;;;;;;;154.55;138.25;;;10.80;99.90;;;;;;5035341;28;20057;-79
2021/12/15 08:10:25;;;;;;;156.68;139.60;;;10.70;99.90;;;;;;5027430;28;20081;-79
2021/12/15 08:12:52;;;;;;;156.88;140.00;;;10.70;99.90;;;;;;5043487;28;20133;-78
2021/12/15 08:15:20;;;;;;;159.95;142.95;;;10.80;99.90;;;;;;5030094;28;20545;-78
2021/12/15 08:17:51;;;;;;;159.38;142.38;;;10.70;99.90;;;;;;5038410;28;20069;-77
2021/12/15 08:20:20;;;;;;;156.73;140.45;;;10.70;99.90;;;;;;5030726;28;20131;-77
2021/12/15 08:22:47;;;;;;;161.52;144.75;;;10.80;99.90;;;;;;5026227;28;20058;-77
2021/12/15 08:25:16;;;;;;;151.93;135.75;;;10.70;99.90;;;;;;5033639;28;20111;-77
2021/12/15 08:27:46;;;;;;;157.13;140.48;;;10.70;99.90;;;;;;5050990;28;20061;-77
2021/12/15 08:30:19;;;;;;;155.57;138.38;;;10.70;99.90;;;;;;5036887;28;20058;-77
2021/12/15 08:32:47;;;;;;;154.63;138.43;;;10.70;99.90;;;;;;5030208;28;20117;-78
2021/12/15 08:35:16;;;;;;;154.18;137.63;;;10.70;99.90;;;;;;5029878;28;20713;-77
2021/12/15 08:37:44;;;;;;;150.80;134.60;;;10.70;99.90;;;;;;5028073;28;20096;-77
2021/12/15 08:40:12;;;;;;;160.38;143.57;;;10.70;99.90;;;;;;5042053;28;20129;-77
2021/12/15 08:42:39;;;;;;;154.60;137.80;;;10.80;99.90;;;;;;5032747;28;20072;-76
2021/12/15 08:45:09;;;;;;;153.15;137.13;;;10.70;99.90;;;;;;5046700;28;20081;-75
2021/12/15 08:47:37;;;;;;;152.85;135.95;;;10.70;99.90;;;;;;5047279;28;20095;-76
2021/12/15 08:50:07;;;;;;;152.23;135.82;;;10.70;99.90;;;;;;5047422;28;20053;-76
2021/12/15 08:52:35;;;;;;;153.57;136.93;;;10.70;99.90;;;;;;5054138;28;20057;-76
2021/12/15 08:55:04;;;;;;;150.93;134.63;;;10.70;99.90;;;;;;5064490;28;20057;-75
2021/12/15 08:57:31;;;;;;;154.93;138.45;;;10.70;99.90;;;;;;5042931;28;20107;-76
2021/12/15 08:59:58;;;;;;;154.45;138.07;;;10.70;99.90;;;;;;5054258;28;20053;-76
2021/12/15 09:02:27;;;;;;;151.45;135.27;;;10.70;99.90;;;;;;5036807;28;20459;-76
2021/12/15 09:04:55;;;;;;;145.55;130.30;;;10.80;99.90;;;;;;5029253;28;20049;-76
2021/12/15 09:07:22;;;;;;;153.20;137.00;;;10.70;99.90;;;;;;5021135;28;20053;-76
2021/12/15 09:09:53;;;;;;;149.73;133.93;;;10.70;99.90;;;;;;5028376;28;20057;-76
2021/12/15 09:12:33;;;;;;;152.30;136.32;;;10.80;99.90;;;;;;5038482;28;20415;-75
2021/12/15 09:15:00;;;;;;;148.88;133.23;;;10.80;99.90;;;;;;5033194;28;20520;-75
2021/12/15 09:17:29;;;;;;;152.27;136.32;;;10.80;99.90;;;;;;5057316;28;20057;-78
2021/12/15 09:19:57;;;;;;;151.23;134.77;;;10.80;99.90;;;;;;5054476;28;20527;-77
2021/12/15 09:22:24;;;;;;;147.32;131.55;;;10.80;99.90;;;;;;5038647;28;20057;-78
2021/12/15 09:24:51;;;;;;;152.02;135.55;;;10.80;99.90;;;;;;5038121;28;20172;-78
2021/12/15 09:27:20;;;;;;;145.05;129.90;;;10.80;99.90;;;;;;5017770;28;20062;-79
2021/12/15 09:29:48;;;;;;;145.43;130.20;;;10.80;99.90;;;;;;5031380;28;20053;-78
2021/12/15 09:32:15;;;;;;;146.80;131.15;;;10.80;99.90;;;;;;5041937;28;20045;-80
2021/12/15 09:34:44;;;;;;;151.05;135.20;;;10.90;99.90;;;;;;5032973;28;20070;-80
2021/12/15 09:37:12;;;;;;;148.60;133.10;;;10.80;99.90;;;;;;5037281;28;20085;-80
2021/12/15 09:39:40;;;;;;;149.60;134.10;;;10.80;99.90;;;;;;5024758;28;20046;-81
2021/12/15 09:42:08;;;;;;;152.07;136.35;;;10.80;99.90;;;;;;5028291;28;20132;-80
2021/12/15 09:44:35;;;;;;;151.27;135.25;;;10.90;99.90;;;;;;5030198;28;20104;-80
2021/12/15 09:47:22;;;;;;;151.52;135.90;;;10.80;99.90;;;;;;5031834;28;20113;-79
2021/12/15 10:03:48;;;;;;;140.95;125.78;;;10.90;99.90;;;;;;5028530;28;20056;-79
2021/12/15 10:06:45;;;;;;;143.57;128.73;;;10.90;99.90;;;;;;5052954;28;20053;-78
2021/12/15 10:12:19;;;;;;;143.85;128.73;;;11.00;99.90;;;;;;5052168;28;20423;-79
2021/12/15 10:17:45;;;;;;;137.98;123.28;;;10.90;99.90;;;;;;5051345;28;20058;-77
2021/12/15 10:20:18;;;;;;;147.23;131.90;;;11.00;99.90;;;;;;5038118;28;20083;-78
2021/12/15 10:22:50;;;;;;;150.10;134.80;;;11.00;99.90;;;;;;5050992;28;20049;-78
2021/12/15 10:25:20;;;;;;;146.35;131.23;;;11.00;99.90;;;;;;5041147;28;20061;-79
2021/12/15 10:27:50;;;;;;;140.25;125.47;;;11.00;99.90;;;;;;5028264;28;20797;-79
2021/12/15 10:30:25;;;;;;;144.40;129.27;;;11.00;99.90;;;;;;5053654;28;20140;-80
2021/12/15 10:32:59;;;;;;;147.73;132.40;;;11.00;99.90;;;;;;5050699;28;20068;-78
2021/12/15 10:35:28;;;;;;;140.48;125.80;;;11.00;99.90;;;;;;5034986;28;20050;-79
2021/12/15 10:38:20;;;;;;;140.07;125.68;;;11.10;99.90;;;;;;5026701;28;20185;-79
2021/12/15 10:41:05;;;;;;;143.05;128.30;;;11.00;99.90;;;;;;5037007;28;20046;-80
2021/12/15 10:43:35;;;;;;;142.48;127.72;;;11.00;99.90;;;;;;5027813;28;20507;-81
2021/12/15 10:46:06;;;;;;;140.00;125.25;;;11.00;99.90;;;;;;5029593;28;20138;-81
2021/12/15 10:48:37;;;;;;;139.48;125.05;;;11.00;99.90;;;;;;5048380;28;20507;-81
2021/12/15 10:51:24;;;;;;;144.95;131.00;;;11.10;99.90;;;;;;5047008;28;20057;-82
2021/12/15 10:53:55;;;;;;;139.77;124.80;;;11.10;99.90;;;;;;5027535;28;20084;-81
2021/12/15 10:56:25;;;;;;;139.07;124.80;;;11.10;99.90;;;;;;5017027;28;20418;-81
2021/12/15 10:58:55;;;;;;;137.20;122.93;;;11.10;99.90;;;;;;5024478;28;20049;-81
2021/12/15 11:01:44;;;;;;;140.43;125.78;;;11.10;99.90;;;;;;5024541;28;20058;-81
2021/12/15 11:04:36;;;;;;;138.23;123.68;;;11.10;99.90;;;;;;5034779;28;20053;-78
2021/12/15 11:07:10;;;;;;;138.18;124.15;;;11.10;99.90;;;;;;5012451;28;20100;-79
2021/12/15 11:09:42;;;;;;;139.85;126.05;;;11.20;99.90;;;;;;5032369;28;20097;-79
2021/12/15 11:12:14;;;;;;;142.60;128.32;;;11.20;99.90;;;;;;5030962;28;20052;-79
2021/12/15 11:14:44;;;;;;;139.48;125.38;;;11.20;99.90;;;;;;5038778;28;20061;-79
2021/12/15 11:17:14;;;;;;;138.48;124.47;;;11.20;99.90;;;;;;5032027;28;20116;-79
2021/12/15 11:19:58;;;;;;;143.25;129.15;;;11.20;99.90;;;;;;5030576;28;20052;-79
2021/12/15 11:22:47;;;;;;;138.95;124.47;;;11.10;99.90;;;;;;5030656;28;20127;-78
2021/12/15 11:25:33;;;;;;;141.13;126.80;;;11.20;99.90;;;;;;5009419;28;20050;-78
2021/12/15 11:28:05;;;;;;;140.15;125.88;;;11.20;99.90;;;;;;5046735;28;20060;-79
2021/12/15 11:30:37;;;;;;;137.63;123.55;;;11.30;99.90;;;;;;5020979;28;20093;-79
2021/12/15 11:33:08;;;;;;;138.13;124.25;;;11.30;99.90;;;;;;5055920;28;20056;-77
2021/12/15 11:35:37;;;;;;;140.55;126.35;;;11.30;99.90;;;;;;5030972;28;20148;-77
2021/12/15 11:38:10;;;;;;;137.35;123.72;;;11.20;99.90;;;;;;5063615;28;20077;-76
2021/12/15 11:40:43;;;;;;;140.88;126.80;;;11.20;99.90;;;;;;5031370;28;20544;-76
2021/12/15 11:43:30;;;;;;;140.90;126.80;;;11.30;99.80;;;;;;5036136;28;20124;-77
2021/12/15 11:45:58;;;;;;;142.20;127.70;;;11.30;99.80;;;;;;5035237;28;20045;-76
2021/12/15 11:48:27;;;;;;;145.43;130.98;;;11.20;99.90;;;;;;5065616;28;20099;-77
2021/12/15 11:50:58;;;;;;;138.57;125.07;;;11.20;99.90;;;;;;5028353;28;20195;-76
2021/12/15 11:53:35;;;;;;;142.07;128.13;;;11.30;99.90;;;;;;5032365;28;20049;-76
2021/12/15 11:56:19;;;;;;;143.82;129.75;;;11.30;99.90;;;;;;5036265;28;20048;-77
2021/12/15 11:58:47;;;;;;;140.63;126.35;;;11.30;99.90;;;;;;5024134;28;20528;-77
2021/12/15 12:01:40;;;;;;;135.85;122.25;;;11.30;99.90;;;;;;5030030;28;20517;-76
2021/12/15 12:04:14;;;;;;;134.48;120.72;;;11.20;99.90;;;;;;5052549;28;20096;-76
2021/12/15 12:06:42;;;;;;;134.30;120.82;;;11.30;99.90;;;;;;5037783;28;20061;-77
2021/12/15 12:09:09;;;;;;;135.93;122.05;;;11.30;99.90;;;;;;5031186;28;20133;-76
2021/12/15 12:11:41;;;;;;;131.23;117.93;;;11.30;99.90;;;;;;5030802;28;20495;-77
2021/12/15 12:14:17;;;;;;;130.20;116.95;;;11.30;99.90;;;;;;5051354;28;20161;-76
2021/12/15 12:16:45;;;;;;;131.15;118.05;;;11.30;99.80;;;;;;5051784;28;20542;-76
2021/12/15 12:19:15;;;;;;;130.20;117.05;;;11.30;99.90;;;;;;5032067;28;20057;-76
2021/12/15 12:21:42;;;;;;;133.27;120.28;;;11.30;99.90;;;;;;5035510;28;20049;-76
2021/12/15 12:24:16;;;;;;;126.72;114.10;;;11.30;99.80;;;;;;5032510;28;20076;-76
2021/12/15 12:26:45;;;;;;;128.10;115.20;;;11.30;99.70;;;;;;5047096;28;20057;-77
2021/12/15 12:29:13;;;;;;;126.88;114.43;;;11.30;99.70;;;;;;5064290;28;20132;-75
2021/12/15 12:31:41;;;;;;;128.25;115.55;;;11.30;99.70;;;;;;5052152;28;20054;-76
2021/12/15 12:34:08;;;;;;;126.93;114.63;;;11.30;99.80;;;;;;5037380;28;20136;-75
2021/12/15 12:36:36;;;;;;;125.72;113.22;;;11.30;99.80;;;;;;5034135;28;20080;-76
2021/12/15 12:39:06;;;;;;;123.97;112.05;;;11.40;99.70;;;;;;5047184;28;20053;-77
2021/12/15 12:41:40;;;;;;;126.47;114.10;;;11.30;99.60;;;;;;5045720;28;20135;-76
2021/12/15 12:44:12;;;;;;;122.82;110.80;;;11.30;99.60;;;;;;5032107;28;20144;-76
2021/12/15 12:46:46;;;;;;;122.75;110.80;;;11.40;99.50;;;;;;5044951;28;20050;-77
2021/12/15 12:49:49;;;;;;;120.95;109.40;;;11.40;99.40;;;;;;5055487;28;20534;-76
2021/12/15 12:59:21;;;;;;;121.18;109.60;;;11.40;99.10;;;;;;5042480;28;20049;-75
2021/12/15 13:00:51;;;;;;;119.97;108.47;;;11.40;99.00;;;;;;5028806;28;20054;-76
2021/12/15 13:03:28;;;;;;;121.40;109.75;;;11.40;99.10;;;;;;5057808;28;20049;-77
2021/12/15 13:06:00;;;;;;;121.35;109.75;;;11.30;99.10;;;;;;5032349;28;20515;-77
2021/12/15 13:08:37;;;;;;;120.40;108.72;;;11.40;99.10;;;;;;5036551;28;20080;-76
2021/12/15 13:11:09;;;;;;;120.80;108.80;;;11.40;99.10;;;;;;5040294;28;20577;-77
2021/12/15 13:13:52;;;;;;;121.30;109.72;;;11.40;99.40;;;;;;5053869;28;20140;-76
2021/12/15 13:16:28;;;;;;;119.07;107.40;;;11.40;99.20;;;;;;5044779;28;20143;-77
2021/12/15 13:18:58;;;;;;;118.60;107.20;;;11.40;99.00;;;;;;5032997;28;20529;-76
2021/12/15 13:21:53;;;;;;;120.80;109.05;;;11.40;98.90;;;;;;5046876;28;20636;-77
2021/12/15 13:30:45;;;;;;;121.10;109.53;;;11.40;98.90;;;;;;5034417;28;20089;-74
2021/12/15 13:33:17;;;;;;;119.53;108.43;;;11.40;98.90;;;;;;5034938;28;20123;-74